• Join FlightAware (Why Join?)
  • Login
  • US Flag 
06:00PM EST


 

Airport Tracker/Info


-or-


 

Live Flight TrackerFlight Track Log ✈ CPT8773 ✈ 24-Sep-2013 ✈ KCPR - KCOD

Flight Track Log - Related Links

Times and Time Zones

All times are in EDT time to prevent confusion due to time zone crossing. See the CPT8773 flight status page for this flight to view local times or setup timezone preferences in your user account.

Time Position Orientation Groundspeed Altitude Reporting Facility
EDT Latitude Longitude Course Direction KTS MPH feet Rate Location/Type
09:32AM 42.9378 -106.4975 351° North 119 137 7,500  Level Denver Center
09:33AM 42.9736 -106.5103 345° North 119 137 8,200 600 Climbing Denver Center
09:34AM 43.0061 -106.5194 348° North 121 139 8,800 540 Climbing Denver Center
09:35AM 43.0383 -106.5303 346° North 123 142 9,300 540 Climbing Denver Center
09:36AM 43.0669 -106.7067 307° West  Level Estimated
09:36AM 43.0750 -106.5444 344° North 123 142 10,000  Level Denver Center
09:37AM 43.1061 -106.7150 351° North  Level FlightAware Approximate
09:37AM 43.1075 -106.5556 346° North 123 142 10,400  Level Denver Center
09:38AM 43.1458 -106.5683 346° North 125 144 10,900 420 Climbing Denver Center
09:39AM 43.1789 -106.5775 349° North 127 146 11,400 420 Climbing Denver Center
09:40AM 43.2253 -106.5889 350° North 131 151 11,900 240 Climbing Denver Center
09:41AM 43.2625 -106.6011 347° North 140 161 11,900  Level Denver Center
09:42AM 43.2803 -106.6353 306° West 143 165 12,000  Climbing Salt Lake Center
09:43AM 43.2981 -106.6814 298° West 145 167 12,000  Level Salt Lake Center
09:44AM 43.3225 -106.7228 309° West 146 168 12,000  Level Salt Lake Center
09:45AM 43.3508 -106.7711 309° West 146 168 12,000  Level Salt Lake Center
09:46AM 43.3703 -106.8150 301° West 143 165 12,000  Level Salt Lake Center
09:47AM 43.3969 -106.8644 307° West 144 166 12,000  Level Salt Lake Center
09:48AM 43.4189 -106.9072 305° West 144 166 12,000  Level Salt Lake Center
09:49AM 43.4419 -106.9508 306° West 143 165 12,000  Level Salt Lake Center
09:50AM 43.4631 -106.9961 303° West 142 163 12,000  Level Salt Lake Center
09:51AM 43.4867 -107.0406 306° West 143 165 12,000  Level Salt Lake Center
09:52AM 43.5111 -107.0842 308° West 144 166 12,000  Level Salt Lake Center
09:53AM 43.5353 -107.1311 305° West 130 150 12,000  Level Salt Lake Center
09:54AM 43.5561 -107.1714 306° West 128 147 12,000  Level Salt Lake Center
09:55AM 43.5803 -107.2133 309° West 136 157 12,000  Level Salt Lake Center
09:56AM 43.6000 -107.2531 304° West 129 148 12,000  Level Salt Lake Center
09:57AM 43.6222 -107.2936 307° West 131 151 12,000  Level Salt Lake Center
09:58AM 43.6436 -107.3347 306° West 131 151 12,000  Level Salt Lake Center
09:59AM 43.6683 -107.3794 307° West 137 158 12,000  Level Salt Lake Center
10:00AM 43.6922 -107.4228 307° West 141 162 12,000  Level Salt Lake Center
10:01AM 43.7153 -107.4664 306° West 141 162 12,000  Level Salt Lake Center
10:02AM 43.7433 -107.5208 306° West 143 165 12,000  Level Salt Lake Center
10:03AM 43.7656 -107.5661 304° West 143 165 12,000  Level Salt Lake Center
10:04AM 43.7900 -107.6111 307° West 144 166 12,000  Level Salt Lake Center
10:05AM 43.8139 -107.6556 307° West 144 166 12,000  Level Salt Lake Center
10:06AM 43.8383 -107.7003 307° West 145 167 12,000  Level Salt Lake Center
10:07AM 43.8617 -107.7472 305° West 146 168 12,000  Level Salt Lake Center
10:08AM 43.8858 -107.7917 307° West 146 168 12,000  Level Salt Lake Center
10:09AM 43.9097 -107.8378 306° West 146 168 12,000  Level Salt Lake Center
10:11AM 43.9383 -107.8914 307° West 146 168 12,000  Level Salt Lake Center
10:12AM 43.9617 -107.9356 306° West 144 166 12,000  Level Salt Lake Center
10:13AM 43.9839 -107.9811 304° West 143 165 12,000  Level Salt Lake Center
10:14AM 44.0072 -108.0253 306° West 143 165 12,000  Level Salt Lake Center
10:15AM 44.0300 -108.0692 306° West 142 163 12,000  Level Salt Lake Center
10:16AM 44.0525 -108.1122 306° West 140 161 12,000  Level Salt Lake Center
10:17AM 44.0750 -108.1561 306° West 140 161 12,000  Level Salt Lake Center
10:18AM 44.0983 -108.2006 306° West 140 161 12,000  Level Salt Lake Center
10:19AM 44.1219 -108.2442 307° West 141 162 12,000  Level Salt Lake Center
10:20AM 44.1469 -108.2969 303° West 139 160 12,000  Level Salt Lake Center
10:21AM 44.1697 -108.3397 307° West 138 159 12,000  Level Salt Lake Center
10:22AM 44.1917 -108.3842 305° West 139 160 12,000  Level Salt Lake Center
10:23AM 44.2142 -108.4272 306° West 139 160 12,000  Level Salt Lake Center
10:24AM 44.2372 -108.4708 306° West 139 160 12,000  Level Salt Lake Center
10:25AM 44.2600 -108.5139 306° West 138 159 12,000  Level Salt Lake Center
10:26AM 44.2822 -108.5569 306° West 138 159 12,000  Level Salt Lake Center